AirNav   Everest Fuels
 
 833 users online  

12ME Ridgeview Airport
Searsmont, Maine, USA

GOING TO SEARSMONT?


FAA INFORMATION EFFECTIVE 10 SEPTEMBER 2020

Location

FAA Identifier: 12ME
Lat/Long: 44-19-20.3800N 069-12-26.1000W
44-19.339667N 069-12.435000W
44.3223278,-69.2072500
(estimated)
Elevation: 240 ft. / 73 m (estimated)
Variation: 18W (2000)
From city: 3 miles SW of SEARSMONT, ME
Time zone: UTC -4 (UTC -5 during Standard Time)
Zip code: 04973

Airport Operations

Airport use: Private use. Permission required prior to landing
Activation date: 05/2002
Control tower: no
ARTCC: BOSTON CENTER
FSS: BANGOR FLIGHT SERVICE STATION
Attendance: UNATNDD
Segmented circle: no

Airport Communications

WX AWOS-AV at BST (10 nm NE): 122.975 (207-930-7071)
WX AWOS-3PT at RKD (16 nm S): 119.025 (207-594-7946)

Nearby radio navigation aids

VOR radial/distance  VOR name  Freq  Var
AUGr108/25.3AUGUSTA VOR/DME114.9518W
BGRr224/34.3BANGOR VORTAC114.8019W

 
NDB name  Hdg/Dist  Freq  Var  ID
SPRUCEHEAD003/16.935618WSUH ... ..- ....
BURNHAM182/23.434818WBUP -... ..- .--.

Airport Services

Runway Information

Runway 15/33

Dimensions: 1500 x 50 ft. / 457 x 15 m
Surface: turf
RUNWAY 15  RUNWAY 33
Traffic pattern: leftleft
Obstructions: treesnone

Airport Ownership and Management from official FAA records

Ownership: Privately-owned
Owner: WAYNE THOMAS
P.O. BOX 6
SEARSMONT, ME 04973
Phone 207-342-5034
Manager: WAYNE THOMAS
P.O. BOX 6
SEARSMONT, ME 04973
Phone (207) 930-5086

Airport Operational Statistics

Aircraft based on the field: 1
Single engine airplanes: 1
    

Additional Remarks

FOR CD CTC BANGOR APCH AT 207-561-2521.

Instrument Procedures

There are no published instrument procedures at 12ME.

Some nearby airports with instrument procedures:

KBST - Belfast Municipal Airport (10 nm NE)
KRKD - Knox County Regional Airport (16 nm S)
KWVL - Waterville Robert LaFleur Airport (24 nm NW)
KAUG - Augusta State Airport (25 nm W)
2B7 - Pittsfield Municipal Airport (28 nm N)
 
Loc | Ops | Rwys | IFR | FBO | Links
Com | Nav | Svcs | Stats | Notes
Area around 12ME (Ridgeview Airport)
 
Road maps at: MapQuest Bing Google
 
Aerial photo
No photo
 
Sectional chart

 
Airport distance calculator
Flying to Ridgeview Airport? Find the distance to fly.

From to 12ME

Sunrise and sunset
Times for 22-Sep-2020
 Local
(UTC-4)
 Zulu
(UTC)
Morning civil twilight05:5709:57
Sunrise06:2610:26
Sunset18:3222:32
Evening civil twilight19:0123:01

Current date and time
Zulu (UTC)  22-Sep-2020 11:20:01
Local (UTC-4)  22-Sep-2020 07:20:01
 
METAR
KRKD 
16nm S 
221056Z AUTO VRB04KT 10SM CLR 09/00 A3016 RMK AO2 SLP214 T00940000
KWVL 
23nm NW 
221056Z AUTO 01007KT 10SM CLR 04/02 A3019 RMK AO2 SLP252 T00390017
KAUG 
25nm W 
221053Z AUTO 33006KT 10SM CLR 04/01 A3021 RMK AO2 SLP233 T00390011 $
KIWI 
31nm SW 
221053Z AUTO 00000KT 10SM CLR 03/00 A3020 RMK AO2 SLP226 T00280000
TAF
KRKD 
16nm S 
220538Z 2206/2306 36003KT P6SM SKC FM221400 01015G25KT P6SM BKN200
NOTAMs
Click for the latest NOTAMs
NOTAMs are issued by the DoD/FAA and will open in a separate window not controlled by AirNav.

 

 
 

Would you like to see your business listed on this page?

 If your business provides an interesting product or service to pilots, flight crews, aircraft, or users of the Ridgeview Airport, you should consider listing it here.  To start the listing process, click on the button below
 
Add a business
 

Other Pages about Ridgeview Airport

Update a link
 
Copyright © AirNav, LLC. All rights reserved. Privacy Policy  Contact